Time;durP1;ratioP1;P1;durP2;ratioP2;P2;SDS_P1;SDS_P2;PMS_P1;PMS_P2;Temp;Humidity;BMP_temperature;BMP_pressure;BME280_temperature;BME280_humidity;BME280_pressure;Samples;Min_cycle;Max_cycle;Signal;HPM_P1;HPM_P2
2022/12/26 00:01:00;;;;;;;190.13;42.35;;;7.90;99.90;;;;;;5071509;28;20389;-80
2022/12/26 00:03:46;;;;;;;;;;;7.90;99.90;;;;;;5089611;28;20057;-83
2022/12/26 00:06:32;;;;;;;168.75;36.55;;;7.90;99.90;;;;;;5091026;28;20386;-82
2022/12/26 00:09:18;;;;;;;200.27;43.13;;;7.90;99.90;;;;;;5092432;28;20097;-82
2022/12/26 00:12:05;;;;;;;198.73;40.30;;;7.90;99.90;;;;;;5092186;28;20465;-78
2022/12/26 00:14:51;;;;;;;185.05;39.15;;;7.90;99.90;;;;;;5075038;28;20074;-84
2022/12/26 00:17:37;;;;;;;178.45;38.72;;;7.90;99.90;;;;;;5089343;28;20488;-80
2022/12/26 00:20:23;;;;;;;211.57;42.65;;;7.90;99.90;;;;;;5057938;28;20483;-83
2022/12/26 00:23:10;;;;;;;178.32;38.08;;;7.90;99.90;;;;;;5088931;28;20445;-81
2022/12/26 00:26:00;;;;;;;211.60;39.85;;;7.90;99.90;;;;;;5094386;28;20059;-80
2022/12/26 00:28:46;;;;;;;192.18;38.20;;;7.80;99.90;;;;;;5099208;28;20048;-86
2022/12/26 00:31:34;;;;;;;154.23;32.35;;;7.80;99.90;;;;;;5092004;28;20062;-80
2022/12/26 00:34:20;;;;;;;162.00;34.45;;;7.80;99.90;;;;;;5088831;28;20051;-80
2022/12/26 00:37:06;;;;;;;181.00;37.85;;;7.80;99.90;;;;;;5057373;28;20166;-81
2022/12/26 00:39:53;;;;;;;197.95;38.45;;;7.80;99.90;;;;;;5088974;28;20044;-81
2022/12/26 00:42:39;;;;;;;218.00;40.80;;;7.80;99.90;;;;;;5070060;28;20056;-79
2022/12/26 00:45:25;;;;;;;282.95;48.08;;;7.80;99.90;;;;;;5088418;28;20504;-80
2022/12/26 00:48:11;;;;;;;273.02;44.75;;;7.80;99.90;;;;;;5075578;28;20162;-78
2022/12/26 00:50:58;;;;;;;302.95;49.42;;;7.80;99.90;;;;;;5073252;28;20048;-79
2022/12/26 00:53:45;;;;;;;291.00;45.85;;;7.80;99.90;;;;;;5088756;28;20040;-79
2022/12/26 00:56:31;;;;;;;305.20;44.53;;;7.80;99.90;;;;;;5088708;28;20423;-79
2022/12/26 00:59:17;;;;;;;274.25;43.28;;;7.80;99.90;;;;;;5088501;28;20048;-78
2022/12/26 01:02:36;;;;;;;189.32;35.92;;;7.80;99.90;;;;;;5076958;28;20381;-78
2022/12/26 01:05:10;;;;;;;231.82;38.58;;;7.80;99.90;;;;;;5070037;28;20142;-82
2022/12/26 01:07:57;;;;;;;193.45;35.55;;;7.80;99.90;;;;;;5088985;28;20132;-78
2022/12/26 01:10:44;;;;;;;209.57;35.63;;;7.80;99.90;;;;;;5087664;28;20652;-78
2022/12/26 01:13:30;;;;;;;188.98;35.85;;;7.80;99.90;;;;;;5092146;28;20062;-79
2022/12/26 01:16:18;;;;;;;194.80;36.25;;;7.80;99.90;;;;;;5096242;28;20484;-79
2022/12/26 01:19:05;;;;;;;145.82;32.45;;;7.90;99.90;;;;;;5093434;28;20051;-83
2022/12/26 01:21:51;;;;;;;168.88;32.97;;;7.80;99.90;;;;;;5089174;28;20058;-77
2022/12/26 01:24:38;;;;;;;148.90;31.35;;;7.80;99.90;;;;;;5089401;28;20500;-78
2022/12/26 01:27:25;;;;;;;158.45;35.65;;;7.80;99.90;;;;;;5088414;28;20059;-83
2022/12/26 01:30:11;;;;;;;135.07;30.90;;;7.80;99.90;;;;;;5089442;28;20053;-85
2022/12/26 01:32:57;;;;;;;157.90;36.63;;;7.80;99.90;;;;;;5056919;28;20088;-82
2022/12/26 01:35:51;;;;;;;156.38;35.28;;;7.80;99.90;;;;;;5077313;28;20055;-82
2022/12/26 01:38:38;;;;;;;124.85;29.60;;;7.80;99.90;;;;;;5073929;28;20063;-81
2022/12/26 01:41:24;;;;;;;159.70;36.38;;;7.80;99.90;;;;;;5093142;28;20048;-78
2022/12/26 01:44:47;;;;;;;151.48;35.63;;;7.90;99.90;;;;;;5074795;28;20036;-79
2022/12/26 01:47:59;;;;;;;179.32;35.92;;;7.80;99.90;;;;;;5092411;28;20079;-78
2022/12/26 01:50:54;;;;;;;168.05;34.35;;;7.80;99.90;;;;;;5093847;28;20048;-84
2022/12/26 01:53:46;;;;;;;137.02;33.40;;;7.80;99.90;;;;;;5094920;28;20174;-83
2022/12/26 01:56:37;;;;;;;129.10;32.63;;;7.80;99.90;;;;;;5074734;28;20514;-78
2022/12/26 01:59:29;;;;;;;139.27;33.58;;;7.90;99.90;;;;;;5077999;28;20105;-80
2022/12/26 02:02:17;;;;;;;127.15;33.20;;;7.90;99.90;;;;;;5096255;28;20040;-78
2022/12/26 02:08:16;;;;;;;129.53;32.77;;;7.90;99.90;;;;;;5095388;28;20044;-78
2022/12/26 02:11:23;;;;;;;126.68;32.35;;;7.90;99.90;;;;;;5091981;28;20341;-79
2022/12/26 02:14:10;;;;;;;109.28;27.92;;;8.00;99.90;;;;;;5092269;28;20074;-79
2022/12/26 02:16:56;;;;;;;105.43;28.40;;;8.00;99.90;;;;;;5073732;28;20044;-85
2022/12/26 02:19:58;;;;;;;107.05;28.30;;;7.90;99.90;;;;;;5073669;28;20541;-78
2022/12/26 02:23:05;;;;;;;105.82;29.17;;;8.00;99.90;;;;;;5074035;28;20138;-78
2022/12/26 02:25:51;;;;;;;107.13;28.08;;;8.00;99.90;;;;;;5096064;28;20135;-85
2022/12/26 02:28:58;;;;;;;104.13;27.63;;;8.00;99.90;;;;;;5079722;28;20047;-80
2022/12/26 02:32:02;;;;;;;92.60;26.40;;;8.00;99.90;;;;;;5073871;28;20052;-76
2022/12/26 02:35:13;;;;;;;93.03;26.15;;;8.10;99.90;;;;;;5074295;28;20135;-78
2022/12/26 02:38:15;;;;;;;96.43;25.45;;;8.10;99.90;;;;;;5094279;28;20055;-80
2022/12/26 02:41:19;;;;;;;92.60;25.10;;;8.10;99.90;;;;;;5082494;28;20062;-81
2022/12/26 02:47:52;;;;;;;72.68;22.17;;;8.10;99.90;;;;;;5078008;28;20113;-77
2022/12/26 03:13:40;;;;;;;73.40;25.42;;;8.20;99.90;;;;;;5074534;28;20056;-84
2022/12/26 03:19:33;;;;;;;86.05;27.55;;;8.20;99.90;;;;;;5095182;28;20507;-85
2022/12/26 03:22:31;;;;;;;80.28;28.35;;;8.20;99.90;;;;;;5074420;28;20085;-77
2022/12/26 03:30:47;;;;;;;91.22;31.27;;;8.20;99.90;;;;;;5072345;28;20063;-84
2022/12/26 03:32:06;;;;;;;82.05;29.25;;;8.30;99.90;;;;;;5082405;28;20499;-79
2022/12/26 03:34:52;;;;;;;90.10;31.60;;;8.30;99.90;;;;;;5089271;28;20407;-81
2022/12/26 03:38:03;;;;;;;84.85;31.20;;;8.30;99.90;;;;;;5074985;28;20193;-80
2022/12/26 04:20:42;;;;;;;98.18;34.05;;;8.30;99.90;;;;;;5071631;28;20066;-81
2022/12/26 04:46:03;;;;;;;89.05;32.33;;;8.20;99.90;;;;;;5072229;28;20062;-82
2022/12/26 04:51:59;;;;;;;76.05;28.88;;;8.20;99.90;;;;;;5098711;28;20044;-85
2022/12/26 04:54:46;;;;;;;76.75;29.17;;;8.20;99.90;;;;;;5075450;28;20052;-79
2022/12/26 04:57:32;;;;;;;67.60;27.35;;;8.30;99.90;;;;;;5070684;28;20058;-84
2022/12/26 05:00:18;;;;;;;71.70;28.30;;;8.30;99.90;;;;;;5071605;28;20048;-83
2022/12/26 05:09:39;;;;;;;62.88;28.23;;;8.40;99.90;;;;;;5092988;28;20048;-80
2022/12/26 05:12:24;;;;;;;66.80;29.65;;;8.40;99.90;;;;;;5093630;28;20043;-81
2022/12/26 05:15:11;;;;;;;60.40;26.50;;;8.40;99.90;;;;;;5093747;28;20131;-79
2022/12/26 05:30:20;;;;;;;50.83;23.92;;;8.30;99.90;;;;;;5075233;28;20151;-77
2022/12/26 05:36:13;;;;;;;55.35;25.33;;;8.20;99.90;;;;;;5074262;28;20055;-80
2022/12/26 05:39:00;;;;;;;53.13;25.35;;;8.10;99.90;;;;;;5074716;28;20491;-84
2022/12/26 05:41:46;;;;;;;55.92;24.15;;;8.10;99.90;;;;;;5093109;28;20044;-80
2022/12/26 05:44:32;;;;;;;47.25;22.02;;;8.10;99.90;;;;;;5074255;28;20139;-88
2022/12/26 05:47:19;;;;;;;51.03;23.50;;;8.10;99.90;;;;;;5095139;28;20082;-78
2022/12/26 05:50:05;;;;;;;51.00;22.45;;;8.00;99.90;;;;;;5074246;28;20072;-79
2022/12/26 05:52:51;;;;;;;54.75;24.02;;;8.10;99.90;;;;;;5093425;28;20078;-78
2022/12/26 05:55:37;;;;;;;49.88;23.35;;;8.10;99.90;;;;;;5092391;28;20574;-84
2022/12/26 05:58:24;;;;;;;50.42;23.65;;;8.10;99.90;;;;;;5076552;28;20101;-85
2022/12/26 06:01:17;;;;;;;45.28;21.85;;;8.10;99.90;;;;;;5091993;28;20141;-82
2022/12/26 06:04:03;;;;;;;45.75;22.73;;;8.20;99.90;;;;;;5098076;28;20056;-80
2022/12/26 06:06:51;;;;;;;50.63;23.70;;;8.20;99.90;;;;;;5074153;28;20087;-79
2022/12/26 06:09:37;;;;;;;42.72;21.23;;;8.20;99.90;;;;;;5073100;28;20066;-79
2022/12/26 06:12:23;;;;;;;42.15;22.45;;;8.20;99.90;;;;;;5072950;28;20087;-77
2022/12/26 06:15:11;;;;;;;44.75;21.73;;;8.20;99.90;;;;;;5092104;28;20040;-78
2022/12/26 06:17:57;;;;;;;41.58;21.63;;;8.20;99.90;;;;;;5091887;28;20044;-82
2022/12/26 06:20:43;;;;;;;41.42;20.65;;;8.20;99.90;;;;;;5098499;28;20111;-83
2022/12/26 06:23:30;;;;;;;39.95;21.30;;;8.10;99.90;;;;;;5080410;28;20090;-77
2022/12/26 06:26:16;;;;;;;34.92;19.30;;;8.20;99.90;;;;;;5059877;28;20422;-78
2022/12/26 06:29:02;;;;;;;36.45;19.15;;;8.20;99.90;;;;;;5091418;28;20064;-77
2022/12/26 06:31:49;;;;;;;32.75;18.50;;;8.30;99.90;;;;;;5092481;28;20138;-82
2022/12/26 06:34:35;;;;;;;40.60;18.80;;;8.40;99.90;;;;;;5080336;28;20048;-78
2022/12/26 06:37:21;;;;;;;39.90;20.83;;;8.40;99.90;;;;;;5083765;28;20053;-79
2022/12/26 06:40:08;;;;;;;39.05;17.20;;;8.40;99.90;;;;;;5100965;28;20129;-84
2022/12/26 06:42:54;;;;;;;30.63;16.90;;;8.40;99.90;;;;;;5077685;28;20040;-80
2022/12/26 06:45:40;;;;;;;28.52;17.13;;;8.40;99.90;;;;;;5091514;28;20729;-81
2022/12/26 06:48:27;;;;;;;31.40;16.60;;;8.40;99.90;;;;;;5073645;28;20044;-80
2022/12/26 06:51:15;;;;;;;29.25;16.20;;;8.50;99.90;;;;;;5091055;28;20516;-83
2022/12/26 06:54:02;;;;;;;31.42;16.00;;;8.50;99.90;;;;;;5091180;28;20044;-84
2022/12/26 06:56:48;;;;;;;31.13;17.63;;;8.40;99.90;;;;;;5091337;28;20051;-82
2022/12/26 06:59:34;;;;;;;29.02;16.48;;;8.50;99.90;;;;;;5083612;28;20051;-84
2022/12/26 07:02:20;;;;;;;30.25;15.75;;;8.40;99.90;;;;;;5092675;28;20044;-77
2022/12/26 07:05:07;;;;;;;27.92;15.77;;;8.40;99.90;;;;;;5091649;28;20055;-78
2022/12/26 07:07:53;;;;;;;25.90;15.65;;;8.40;99.90;;;;;;5071634;28;20047;-77
2022/12/26 07:10:39;;;;;;;29.42;16.40;;;8.40;99.90;;;;;;5092284;28;20084;-76
2022/12/26 07:13:25;;;;;;;27.88;15.25;;;8.40;99.90;;;;;;5076144;28;20044;-80
2022/12/26 07:16:11;;;;;;;26.88;15.07;;;8.40;99.90;;;;;;5058990;28;20056;-81
2022/12/26 07:18:58;;;;;;;25.70;13.75;;;8.30;99.90;;;;;;5096378;28;20044;-81
2022/12/26 07:21:44;;;;;;;31.23;13.07;;;8.30;99.90;;;;;;5090580;28;20404;-79
2022/12/26 07:24:30;;;;;;;24.08;13.52;;;8.30;99.90;;;;;;5091634;28;20048;-86
2022/12/26 07:27:16;;;;;;;26.30;13.00;;;8.20;99.90;;;;;;5079807;28;20098;-80
2022/12/26 07:30:02;;;;;;;22.40;12.95;;;8.10;99.90;;;;;;5090738;28;20102;-76
2022/12/26 07:32:49;;;;;;;24.27;14.10;;;8.10;99.90;;;;;;5072672;28;20400;-79
2022/12/26 07:35:35;;;;;;;26.13;12.15;;;8.10;99.90;;;;;;5091367;28;20109;-88
2022/12/26 07:38:21;;;;;;;23.85;12.02;;;8.10;99.90;;;;;;5060613;28;20074;-79
2022/12/26 07:44:12;;;;;;;28.73;11.02;;;8.10;99.90;;;;;;5089755;28;20109;-77
2022/12/26 07:46:59;;;;;;;27.40;12.48;;;8.10;99.90;;;;;;5071453;28;20534;-77
2022/12/26 07:49:45;;;;;;;17.63;10.35;;;8.10;99.90;;;;;;5071481;28;20055;-77
2022/12/26 07:52:31;;;;;;;26.55;10.70;;;8.10;99.90;;;;;;5071885;28;20419;-86
2022/12/26 07:55:18;;;;;;;17.55;10.60;;;8.10;99.90;;;;;;5094464;28;20709;-79
2022/12/26 07:58:04;;;;;;;17.13;9.65;;;8.10;99.90;;;;;;5082028;28;20051;-78
2022/12/26 08:00:50;;;;;;;16.48;9.20;;;8.20;99.90;;;;;;5075584;28;20068;-79
2022/12/26 08:03:36;;;;;;;20.10;8.48;;;8.10;99.90;;;;;;5089616;28;20063;-79
2022/12/26 08:06:22;;;;;;;20.48;9.55;;;8.20;99.90;;;;;;5089632;28;20052;-82
2022/12/26 08:09:14;;;;;;;18.95;9.27;;;8.10;99.90;;;;;;5075381;28;20415;-78
2022/12/26 08:12:00;;;;;;;19.38;8.63;;;8.10;99.90;;;;;;5075132;28;20055;-83
2022/12/26 08:14:47;;;;;;;17.65;8.40;;;8.10;99.90;;;;;;5077879;28;20066;-77
2022/12/26 08:17:33;;;;;;;17.83;7.97;;;8.10;99.90;;;;;;5075742;28;20067;-80
2022/12/26 08:20:19;;;;;;;17.27;7.22;;;8.10;99.90;;;;;;5077922;28;20047;-79
2022/12/26 08:23:05;;;;;;;15.80;7.50;;;8.20;99.90;;;;;;5072614;28;20488;-81
2022/12/26 08:25:52;;;;;;;15.80;7.00;;;8.30;99.90;;;;;;5089784;28;20048;-79
2022/12/26 08:28:38;;;;;;;13.82;8.05;;;8.30;99.90;;;;;;5090454;28;20048;-85
2022/12/26 08:31:25;;;;;;;15.07;6.53;;;8.40;99.90;;;;;;5078545;28;20059;-78
2022/12/26 08:34:12;;;;;;;12.85;6.85;;;8.50;99.90;;;;;;5072174;28;20044;-80
2022/12/26 08:36:58;;;;;;;17.83;7.22;;;8.60;99.90;;;;;;5071773;28;20052;-81
2022/12/26 08:39:44;;;;;;;19.30;7.15;;;8.60;99.90;;;;;;5089510;28;20087;-84
2022/12/26 08:42:30;;;;;;;14.85;6.10;;;8.60;99.90;;;;;;5089479;28;20079;-80
2022/12/26 08:45:16;;;;;;;14.38;6.30;;;8.60;99.90;;;;;;5092937;28;20380;-83
2022/12/26 08:48:03;;;;;;;11.90;6.22;;;8.60;99.90;;;;;;5095461;28;20063;-86
2022/12/26 08:51:14;;;;;;;13.45;7.18;;;8.60;99.90;;;;;;5080407;28;20048;-80
2022/12/26 08:54:01;;;;;;;12.15;6.15;;;8.60;99.90;;;;;;5062111;28;20055;-79
2022/12/26 08:56:48;;;;;;;17.35;8.18;;;8.60;99.90;;;;;;5075997;28;20511;-81
2022/12/26 08:59:34;;;;;;;19.48;7.65;;;8.60;99.90;;;;;;5094643;28;20062;-79
2022/12/26 09:02:20;;;;;;;13.70;6.68;;;8.50;99.90;;;;;;5094376;28;20054;-79
2022/12/26 09:05:07;;;;;;;11.73;7.10;;;8.50;99.90;;;;;;5075943;28;20056;-80
2022/12/26 09:07:53;;;;;;;16.63;7.57;;;8.50;99.90;;;;;;5095847;28;20044;-87
2022/12/26 09:10:39;;;;;;;18.83;8.95;;;8.40;99.90;;;;;;5098450;28;20055;-83
2022/12/26 09:13:25;;;;;;;14.18;7.72;;;8.40;99.90;;;;;;5067990;28;20476;-80
2022/12/26 09:16:23;;;;;;;13.98;7.22;;;8.40;99.90;;;;;;5065185;28;20048;-82
2022/12/26 09:19:17;;;;;;;15.00;6.53;;;8.40;99.90;;;;;;5094078;28;20131;-79
2022/12/26 09:25:08;;;;;;;14.65;5.28;;;8.50;99.90;;;;;;5094156;28;20189;-77
2022/12/26 09:27:54;;;;;;;19.48;3.60;;;8.40;99.90;;;;;;5060992;28;20048;-79
2022/12/26 09:30:41;;;;;;;39.53;5.13;;;8.30;99.90;;;;;;5093006;28;20051;-78
2022/12/26 09:33:28;;;;;;;15.80;3.70;;;8.10;99.90;;;;;;5092888;28;20046;-83
2022/12/26 09:36:19;;;;;;;25.40;4.90;;;7.90;99.90;;;;;;5081192;28;20039;-86
2022/12/26 09:39:06;;;;;;;16.23;2.95;;;7.80;99.90;;;;;;5077174;28;20048;-82
2022/12/26 09:42:21;;;;;;;20.17;4.00;;;7.70;99.90;;;;;;5074813;28;20503;-81
2022/12/26 09:45:16;;;;;;;17.98;4.53;;;7.60;99.90;;;;;;5082301;28;20117;-79
2022/12/26 09:48:35;;;;;;;15.20;3.78;;;7.50;99.90;;;;;;5073747;28;20498;-79
2022/12/26 09:51:21;;;;;;;18.17;3.00;;;7.60;99.90;;;;;;5093652;28;20051;-82
2022/12/26 09:54:18;;;;;;;19.67;3.58;;;7.60;99.90;;;;;;5075412;28;20047;-80
2022/12/26 09:57:24;;;;;;;14.85;2.65;;;7.60;99.90;;;;;;5072483;28;20044;-78
2022/12/26 10:00:20;;;;;;;17.10;4.40;;;7.60;99.90;;;;;;5096239;28;20487;-86
2022/12/26 10:03:09;;;;;;;19.92;3.95;;;7.50;99.90;;;;;;5095997;28;20056;-79
2022/12/26 10:06:10;;;;;;;19.35;3.10;;;7.50;99.90;;;;;;5060178;28;20052;-83
2022/12/26 10:09:30;;;;;;;14.48;3.60;;;7.60;99.90;;;;;;5092722;28;20044;-78
2022/12/26 10:12:31;;;;;;;20.52;3.75;;;7.80;99.90;;;;;;5092648;28;20056;-82
2022/12/26 10:15:23;;;;;;;19.58;3.83;;;7.60;99.90;;;;;;5074633;28;20104;-87
2022/12/26 10:18:21;;;;;;;22.05;3.78;;;7.50;99.90;;;;;;5094116;28;20064;-81
2022/12/26 10:21:32;;;;;;;19.00;4.82;;;7.40;99.90;;;;;;5081832;28;20041;-79
2022/12/26 10:24:22;;;;;;;26.77;4.30;;;7.40;99.90;;;;;;5074962;28;20492;-82
2022/12/26 10:27:14;;;;;;;16.45;3.97;;;7.40;99.90;;;;;;5083463;28;20511;-80
2022/12/26 10:30:06;;;;;;;16.13;3.40;;;7.30;99.90;;;;;;5091551;28;20044;-79
2022/12/26 10:33:00;;;;;;;16.20;2.95;;;7.20;99.90;;;;;;5091890;28;20043;-79
2022/12/26 10:35:47;;;;;;;16.02;3.65;;;7.10;99.90;;;;;;5073163;28;20056;-81
2022/12/26 10:38:42;;;;;;;14.48;2.42;;;7.10;99.90;;;;;;5095784;28;20059;-84
2022/12/26 10:41:41;;;;;;;12.10;2.78;;;7.00;99.90;;;;;;5078905;28;20101;-81
2022/12/26 10:44:27;;;;;;;23.35;3.75;;;7.00;99.90;;;;;;5072978;28;20087;-80
2022/12/26 10:47:32;;;;;;;14.52;2.92;;;6.90;99.90;;;;;;5092303;28;20048;-80
2022/12/26 10:50:22;;;;;;;13.27;2.40;;;6.90;99.90;;;;;;5060999;28;20056;-80
2022/12/26 10:53:12;;;;;;;13.68;2.00;;;7.10;99.90;;;;;;5059048;28;20052;-81
2022/12/26 10:56:00;;;;;;;12.45;2.63;;;7.30;99.90;;;;;;5079148;28;20064;-82
2022/12/26 10:58:58;;;;;;;12.88;2.33;;;7.60;99.90;;;;;;5078983;28;20052;-79
2022/12/26 11:01:46;;;;;;;7.28;1.48;;;7.70;99.90;;;;;;5073480;28;20484;-79
2022/12/26 11:04:33;;;;;;;14.85;2.30;;;7.60;99.90;;;;;;5092320;28;20423;-80
2022/12/26 11:07:19;;;;;;;12.68;1.85;;;7.30;99.90;;;;;;5080151;28;20055;-78
2022/12/26 11:10:17;;;;;;;13.07;2.00;;;7.10;99.90;;;;;;5076930;28;20098;-79
2022/12/26 11:13:18;;;;;;;12.32;2.00;;;7.00;99.90;;;;;;5069112;28;20079;-80
2022/12/26 11:16:05;;;;;;;19.30;2.35;;;6.90;99.90;;;;;;5099957;28;20055;-80
2022/12/26 11:18:52;;;;;;;13.52;2.00;;;6.70;99.90;;;;;;5091388;28;20052;-83
2022/12/26 11:21:39;;;;;;;11.10;2.50;;;6.70;99.90;;;;;;5090703;28;20584;-78
2022/12/26 11:24:25;;;;;;;21.00;4.20;;;6.70;99.90;;;;;;5090571;28;20047;-80
2022/12/26 11:27:22;;;;;;;18.13;2.67;;;6.70;99.90;;;;;;5091082;28;20055;-83
2022/12/26 11:30:20;;;;;;;11.63;2.05;;;6.70;99.90;;;;;;5058528;28;20504;-78
2022/12/26 11:33:09;;;;;;;16.92;3.20;;;6.80;99.90;;;;;;5072984;28;20495;-84
2022/12/26 11:36:07;;;;;;;15.95;2.53;;;6.80;99.90;;;;;;5092686;28;20044;-84
2022/12/26 11:39:04;;;;;;;11.30;2.45;;;6.80;99.90;;;;;;5097199;28;20066;-82
2022/12/26 11:41:51;;;;;;;14.85;2.30;;;6.80;99.90;;;;;;5072362;28;20048;-82
2022/12/26 11:44:43;;;;;;;22.35;3.88;;;6.80;99.90;;;;;;5090514;28;20620;-80
2022/12/26 11:47:29;;;;;;;20.42;3.50;;;6.80;99.90;;;;;;5071331;28;20048;-79
2022/12/26 11:50:20;;;;;;;21.02;2.90;;;6.90;99.90;;;;;;5091621;28;20052;-80
2022/12/26 11:53:11;;;;;;;24.83;3.03;;;6.90;99.90;;;;;;5076308;28;20496;-82
2022/12/26 11:56:03;;;;;;;18.63;2.25;;;6.90;99.90;;;;;;5090920;28;20063;-85
2022/12/26 11:58:53;;;;;;;16.10;3.10;;;6.90;99.90;;;;;;5096963;28;20125;-79
2022/12/26 12:01:39;;;;;;;21.40;3.45;;;6.90;99.90;;;;;;5072933;28;20134;-84
2022/12/26 12:04:25;;;;;;;17.42;3.75;;;6.90;99.90;;;;;;5075050;28;20048;-84
2022/12/26 12:07:32;;;;;;;19.85;4.35;;;7.20;99.90;;;;;;5079911;28;20415;-82
2022/12/26 12:10:41;;;;;;;17.40;3.30;;;7.60;99.90;;;;;;5072210;28;20044;-85
2022/12/26 12:13:42;;;;;;;15.18;3.85;;;7.70;99.90;;;;;;5090642;28;20091;-85
2022/12/26 12:16:46;;;;;;;16.10;2.72;;;7.60;99.90;;;;;;5098924;28;20040;-79
2022/12/26 12:19:48;;;;;;;14.30;3.28;;;7.90;99.90;;;;;;5071862;28;20048;-79
2022/12/26 12:22:49;;;;;;;18.25;3.03;;;9.20;99.90;;;;;;5071472;28;20063;-78
2022/12/26 12:26:02;;;;;;;23.08;4.93;;;10.10;99.90;;;;;;5090195;28;20052;-79
2022/12/26 12:29:24;;;;;;;22.10;3.42;;;10.70;99.90;;;;;;5090198;28;20048;-79
2022/12/26 12:32:36;;;;;;;15.70;2.55;;;10.80;99.90;;;;;;5073901;28;20500;-80
2022/12/26 12:35:49;;;;;;;18.50;3.40;;;11.20;99.90;;;;;;5080631;28;20054;-80
2022/12/26 12:38:51;;;;;;;14.48;3.42;;;11.40;99.90;;;;;;5099422;28;20056;-79
2022/12/26 12:41:52;;;;;;;17.48;3.67;;;11.80;99.90;;;;;;5075977;28;20492;-77
2022/12/26 12:45:10;;;;;;;15.15;2.92;;;12.10;99.90;;;;;;5089869;28;20040;-79
2022/12/26 12:48:17;;;;;;;16.85;3.58;;;12.10;99.90;;;;;;5089740;28;20051;-78
2022/12/26 12:51:09;;;;;;;18.45;3.05;;;12.10;99.70;;;;;;5061709;28;20056;-82
2022/12/26 12:54:09;;;;;;;12.82;2.75;;;12.20;99.90;;;;;;5091209;28;20057;-78
2022/12/26 12:57:15;;;;;;;11.93;2.22;;;12.00;99.90;;;;;;5071172;28;20055;-78
2022/12/26 13:00:18;;;;;;;14.85;3.42;;;11.80;99.90;;;;;;5089227;28;20515;-82
2022/12/26 13:03:11;;;;;;;14.88;2.72;;;11.10;99.90;;;;;;5090944;28;20400;-77
2022/12/26 13:06:03;;;;;;;34.15;3.55;;;10.40;99.90;;;;;;5095610;28;20052;-80
2022/12/26 13:08:52;;;;;;;18.90;3.08;;;10.40;99.90;;;;;;5098623;28;20113;-78
2022/12/26 13:11:52;;;;;;;13.30;3.22;;;10.10;99.90;;;;;;5093101;28;20055;-82
2022/12/26 13:14:48;;;;;;;17.10;2.47;;;9.70;99.90;;;;;;5088431;28;20052;-78
2022/12/26 13:17:40;;;;;;;15.57;3.22;;;9.30;99.90;;;;;;5071716;28;20130;-79
2022/12/26 13:20:38;;;;;;;22.38;3.38;;;9.10;99.90;;;;;;5070785;28;20056;-78
2022/12/26 13:27:05;;;;;;;16.27;2.92;;;8.90;99.90;;;;;;5070777;28;20117;-82
2022/12/26 13:29:52;;;;;;;14.77;3.88;;;8.60;99.90;;;;;;5070729;28;20110;-80
2022/12/26 13:32:39;;;;;;;18.23;3.30;;;8.40;99.90;;;;;;5093353;28;20105;-83
2022/12/26 13:35:51;;;;;;;16.20;3.35;;;8.40;99.90;;;;;;5081482;28;20103;-83
2022/12/26 13:38:55;;;;;;;15.07;3.50;;;8.40;99.90;;;;;;5074976;28;20048;-83
2022/12/26 13:45:35;;;;;;;19.77;3.85;;;8.40;99.90;;;;;;5074113;28;20128;-81
2022/12/26 13:48:29;;;;;;;20.83;2.95;;;8.10;99.90;;;;;;5072665;28;20048;-79
2022/12/26 13:51:45;;;;;;;15.68;2.25;;;8.20;99.90;;;;;;5086396;28;20072;-79
2022/12/26 13:54:31;;;;;;;;;;;8.40;99.90;;;;;;5093327;28;20044;-81
2022/12/26 13:57:43;;;;;;;17.00;2.50;;;8.80;99.90;;;;;;5074905;28;20344;-77
2022/12/26 14:00:45;;;;;;;19.13;3.10;;;9.00;99.90;;;;;;5073106;28;20056;-82
2022/12/26 14:03:43;;;;;;;15.20;3.80;;;9.00;99.90;;;;;;5091767;28;20051;-80
2022/12/26 14:06:40;;;;;;;15.93;2.65;;;8.70;99.90;;;;;;5091074;28;20162;-82
2022/12/26 14:09:40;;;;;;;17.38;3.05;;;8.50;99.90;;;;;;5091802;28;20508;-79
2022/12/26 14:12:32;;;;;;;16.63;2.85;;;8.40;99.90;;;;;;5091507;28;20054;-81
2022/12/26 14:15:35;;;;;;;19.90;3.55;;;8.10;99.90;;;;;;5095920;28;20238;-85
2022/12/26 14:18:21;;;;;;;15.50;3.05;;;7.80;99.90;;;;;;5085254;28;20052;-83
2022/12/26 14:21:55;;;;;;;19.90;4.07;;;7.50;99.90;;;;;;5062746;28;20056;-78
2022/12/26 14:24:56;;;;;;;12.75;3.38;;;7.40;99.90;;;;;;5025609;28;20411;-77
2022/12/26 14:27:54;;;;;;;12.23;2.80;;;7.40;99.90;;;;;;5099801;28;20708;-83
2022/12/26 14:31:02;;;;;;;16.02;2.30;;;7.40;99.90;;;;;;5094251;28;20055;-78
2022/12/26 14:34:15;;;;;;;13.45;2.80;;;7.40;99.90;;;;;;5077107;28;20056;-86
2022/12/26 14:37:09;;;;;;;14.68;3.25;;;7.40;99.90;;;;;;5050774;28;20040;-78
2022/12/26 14:40:14;;;;;;;13.80;2.08;;;7.30;99.90;;;;;;5092005;28;20122;-78
2022/12/26 14:43:09;;;;;;;18.70;2.80;;;7.10;99.90;;;;;;5091703;28;20197;-77
2022/12/26 14:45:56;;;;;;;12.10;2.90;;;6.90;99.90;;;;;;5060316;28;20048;-81
2022/12/26 14:48:48;;;;;;;17.05;2.45;;;6.80;99.90;;;;;;5060162;28;20048;-79
2022/12/26 14:51:37;;;;;;;22.67;5.25;;;6.60;99.90;;;;;;5073017;28;20083;-80
2022/12/26 14:54:24;;;;;;;10.43;2.80;;;6.50;99.90;;;;;;5096950;28;20471;-81
2022/12/26 14:57:44;;;;;;;17.05;2.88;;;6.40;99.90;;;;;;5092023;28;20040;-77
2022/12/26 15:00:32;;;;;;;16.55;2.88;;;6.40;99.90;;;;;;5091618;28;20076;-78
2022/12/26 15:03:42;;;;;;;13.73;2.20;;;6.30;99.90;;;;;;5092084;28;20686;-81
2022/12/26 15:06:50;;;;;;;17.88;2.30;;;6.30;99.90;;;;;;5073097;28;20138;-79
2022/12/26 15:09:39;;;;;;;15.60;2.75;;;6.20;99.90;;;;;;5076360;28;20052;-84
2022/12/26 15:12:49;;;;;;;15.55;2.38;;;6.10;99.90;;;;;;5092166;28;20143;-79
2022/12/26 15:15:50;;;;;;;18.02;4.35;;;6.00;99.90;;;;;;5059848;28;20051;-78
2022/12/26 15:18:47;;;;;;;15.88;2.33;;;5.90;99.90;;;;;;5073217;28;20063;-79
2022/12/26 15:22:21;;;;;;;17.35;2.03;;;5.80;99.90;;;;;;5089979;28;20086;-82
2022/12/26 15:25:37;;;;;;;14.98;2.30;;;5.80;99.90;;;;;;5092577;28;20521;-78
2022/12/26 15:28:45;;;;;;;13.65;2.33;;;5.70;99.90;;;;;;5101957;28;20048;-79
2022/12/26 15:31:41;;;;;;;13.63;2.33;;;5.60;99.90;;;;;;5093840;28;20119;-79
2022/12/26 15:34:48;;;;;;;16.40;3.03;;;5.60;99.90;;;;;;5073334;28;20521;-78
2022/12/26 15:38:01;;;;;;;13.85;2.78;;;5.50;99.90;;;;;;5090462;28;20404;-78
2022/12/26 15:41:11;;;;;;;18.52;2.05;;;5.50;99.90;;;;;;5059634;28;20560;-79
2022/12/26 15:44:02;;;;;;;19.33;2.50;;;5.40;99.90;;;;;;5072800;28;20079;-79
2022/12/26 15:47:14;;;;;;;15.15;2.55;;;5.40;99.90;;;;;;5072885;28;20843;-79
2022/12/26 15:50:27;;;;;;;14.30;2.00;;;5.30;99.90;;;;;;5091467;28;20076;-79
2022/12/26 15:53:51;;;;;;;13.10;1.80;;;5.30;99.90;;;;;;5099426;28;20081;-80
2022/12/26 15:57:03;;;;;;;16.55;2.10;;;5.20;99.90;;;;;;5091949;28;20051;-80
2022/12/26 16:00:14;;;;;;;14.00;2.65;;;5.20;99.90;;;;;;5059670;28;20128;-78
2022/12/26 16:03:17;;;;;;;18.65;2.42;;;5.20;99.90;;;;;;5092037;28;20067;-78
2022/12/26 16:06:31;;;;;;;16.58;2.22;;;5.20;99.90;;;;;;5092080;28;20410;-78
2022/12/26 16:09:42;;;;;;;16.58;2.60;;;5.10;99.90;;;;;;5071579;28;20055;-80
2022/12/26 16:12:32;;;;;;;15.00;2.60;;;5.10;99.90;;;;;;5093324;28;20094;-80
2022/12/26 16:15:23;;;;;;;19.65;3.30;;;5.10;99.90;;;;;;5074974;28;20052;-78
2022/12/26 16:18:30;;;;;;;11.75;1.98;;;5.00;99.90;;;;;;5091784;28;20044;-82
2022/12/26 16:24:26;;;;;;;13.57;1.77;;;5.00;99.90;;;;;;5090752;28;20399;-78
2022/12/26 16:27:18;;;;;;;18.60;3.70;;;5.00;99.90;;;;;;5073909;28;20044;-85
2022/12/26 16:30:12;;;;;;;13.50;1.80;;;5.00;99.90;;;;;;5080739;28;20467;-79
2022/12/26 16:32:59;;;;;;;13.77;2.38;;;5.00;99.90;;;;;;5099773;28;20479;-78
2022/12/26 16:35:45;;;;;;;19.67;2.90;;;4.90;99.90;;;;;;5101040;28;20048;-77
2022/12/26 16:38:31;;;;;;;18.48;2.53;;;4.90;99.90;;;;;;5075273;28;20091;-79
2022/12/26 16:41:24;;;;;;;16.45;2.78;;;4.80;99.90;;;;;;5092592;28;20040;-77
2022/12/26 16:44:43;;;;;;;24.67;3.00;;;4.80;99.90;;;;;;5092969;28;20044;-82
2022/12/26 16:47:30;;;;;;;12.02;2.58;;;4.80;99.90;;;;;;5042748;28;20040;-83
2022/12/26 16:50:23;;;;;;;21.58;2.75;;;4.80;99.90;;;;;;5095231;28;20044;-83
2022/12/26 16:53:19;;;;;;;23.95;3.05;;;4.80;99.90;;;;;;5071877;28;20111;-80
2022/12/26 16:56:26;;;;;;;17.25;2.78;;;4.70;99.90;;;;;;5072697;28;20052;-80
2022/12/26 16:59:17;;;;;;;24.52;2.97;;;4.70;99.90;;;;;;5090312;28;20084;-78
2022/12/26 17:02:12;;;;;;;16.70;3.47;;;4.70;99.90;;;;;;5064001;28;20056;-78
2022/12/26 17:05:28;;;;;;;17.45;3.53;;;4.70;99.90;;;;;;5097760;28;20094;-84
2022/12/26 17:08:15;;;;;;;13.32;2.42;;;4.70;99.90;;;;;;5102384;28;20496;-80
2022/12/26 17:11:01;;;;;;;17.23;4.15;;;4.70;99.90;;;;;;5093000;28;20048;-80
2022/12/26 17:13:52;;;;;;;17.35;2.25;;;4.70;99.90;;;;;;5075552;28;20052;-80
2022/12/26 17:16:38;;;;;;;15.27;2.95;;;4.60;99.90;;;;;;5074037;28;20074;-80